• Join FlightAware (Why Join?)
  • Login
  • US Flag 
09:40PM EDT


 

Airport Tracker/Info


-or-


 

Live Flight TrackerFlight Track Log ✈ N76055 ✈ 18-Apr-2013 ✈ SBGR / GRU - KEWR

Flight Track Log - Related Links

Times and Time Zones

All times are in EDT time to prevent confusion due to time zone crossing. See the N76055 flight status page for this flight to view local times or setup timezone preferences in your user account.

Time Position Orientation Groundspeed Altitude Reporting Facility
EDT Latitude Longitude Course Direction KTS MPH feet Rate Location/Type
08:45PM -23.0598 -46.6343 335° Northwest  Level Estimated
08:45PM -23.3420 -46.2390 335° Northwest 278 320 8,300  Level FlightAware
08:46PM -23.2390 -46.2120 14° North 314 361 10,500 1,560 Climbing FlightAware
08:49PM -22.9834 -46.3263 338° Northwest  Level Estimated
08:50PM -22.8673 -46.3781 338° Northwest  Level Estimated
08:50PM -22.8640 -46.2160 338° Northwest 404 465 16,000  Level FlightAware
08:51PM -22.7210 -46.2410 351° North 425 489 18,300 1,740 Climbing FlightAware
08:52PM -22.5730 -46.2670 351° North 437 503 20,400 1,560 Climbing FlightAware
08:54PM -22.4310 -46.2910 351° North 440 506 22,200 1,440 Climbing FlightAware
08:55PM -22.2850 -46.3160 351° North 458 527 23,800 1,380 Climbing FlightAware
08:56PM -22.1240 -46.3430 351° North 458 527 25,600 1,320 Climbing FlightAware
08:58PM -21.7990 -46.4020 338° Northwest 474 545 28,800 1,260 Climbing FlightAware
08:59PM -21.8299 -46.4739 338° Northwest  Level Estimated
09:00PM -21.6090 -46.4330 351° North 459 528 30,700  Level FlightAware
09:01PM -21.4930 -46.4510 352° North 452 520 31,000 120 Climbing FlightAware
09:02PM -21.3380 -46.4760 351° North 458 527 31,000  Level FlightAware
09:03PM -21.1910 -46.5000 351° North 456 525 31,000  Level FlightAware
09:04PM -21.0980 -46.5150 351° North 455 524 31,000  Level FlightAware
09:05PM -20.9810 -46.5340 351° North 454 522 31,000  Level FlightAware
09:06PM -20.8610 -46.5530 352° North 462 532 31,000  Level FlightAware
09:07PM -20.7600 -46.5690 352° North 460 529 31,000  Level FlightAware
09:07PM -20.6920 -46.5800 351° North 460 529 31,000  Level FlightAware
09:08PM -20.6020 -46.5950 351° North 460 529 31,000  Level FlightAware
09:09PM -20.5310 -46.6080 350° North 460 529 31,000  Level FlightAware
09:09PM -20.4590 -46.6200 351° North 460 529 31,000  Level FlightAware
09:10PM -20.3880 -46.6320 351° North 460 529 31,000  Level FlightAware
09:11PM -20.3160 -46.6440 351° North 460 529 31,000  Level FlightAware
09:12PM -20.2270 -46.6590 351° North 460 529 31,000  Level FlightAware
09:12PM -20.1560 -46.6710 351° North 460 529 31,000  Level FlightAware
09:13PM -20.0840 -46.6830 351° North 460 529 31,000  Level FlightAware
09:14PM -20.0130 -46.6950 351° North 460 529 31,000  Level FlightAware
09:14PM -19.9410 -46.7070 351° North 460 529 31,000  Level FlightAware
09:15PM -19.8700 -46.7190 351° North 460 529 31,000  Level FlightAware
09:16PM -19.7800 -46.7340 351° North 460 529 31,000  Level FlightAware
09:16PM -19.7090 -46.7460 351° North 460 529 31,000  Level FlightAware
09:19PM -19.4634 -46.8541 337° Northwest  Level Estimated
09:20PM -19.3474 -46.9051 337° Northwest  Level Estimated
09:21PM -19.2314 -46.9560 337° Northwest  Level Estimated
09:22PM -19.1153 -47.0069 338° Northwest  Level Estimated
09:23PM -18.9993 -47.0576 338° Northwest  Level Estimated
09:24PM -18.8832 -47.1083 338° Northwest  Level Estimated
09:25PM -18.7671 -47.1590 338° Northwest  Level Estimated
09:26PM -18.6509 -47.2095 338° Northwest  Level Estimated
09:27PM -18.5348 -47.2600 338° Northwest  Level Estimated
09:28PM -18.4187 -47.3104 338° Northwest  Level Estimated
09:29PM -18.3025 -47.3607 338° Northwest  Level Estimated
09:30PM -18.1864 -47.4110 338° Northwest  Level Estimated
09:31PM -18.0702 -47.4612 338° Northwest  Level Estimated
09:32PM -17.9540 -47.5114 338° Northwest  Level Estimated
09:33PM -17.8378 -47.5615 338° Northwest  Level Estimated
09:34PM -17.7216 -47.6115 338° Northwest  Level Estimated
09:35PM -17.6053 -47.6614 338° Northwest  Level Estimated
09:36PM -17.4891 -47.7113 338° Northwest  Level Estimated
09:37PM -17.3729 -47.7612 338° Northwest  Level Estimated
09:38PM -17.2566 -47.8109 338° Northwest  Level Estimated
09:39PM -17.1403 -47.8606 338° Northwest  Level Estimated
09:40PM -17.0240 -47.9103 338° Northwest  Level Estimated
09:41PM -16.9077 -47.9598 338° Northwest  Level Estimated
09:42PM -16.7914 -48.0093 338° Northwest  Level Estimated
09:42PM -16.4950 -47.7680 338° Northwest 449 517 32,000  Level FlightAware
09:42PM -16.4170 -47.8040 336° Northwest 450 518 32,000  Level FlightAware
09:43PM -16.3510 -47.8360 335° Northwest 449 517 32,000  Level FlightAware
09:44PM -16.2650 -47.8750 336° Northwest 449 517 32,000  Level FlightAware
09:44PM -16.1960 -47.9080 335° Northwest 450 518 32,000  Level FlightAware
09:45PM -16.1050 -47.9510 336° Northwest 449 517 32,000  Level FlightAware
09:46PM -16.0410 -47.9820 335° Northwest 449 517 32,000  Level FlightAware
09:46PM -15.9770 -48.0130 335° Northwest 449 517 32,000  Level FlightAware
09:47PM -15.8620 -48.0630 337° Northwest 450 518 32,000  Level FlightAware
09:48PM -15.7920 -48.0950 336° Northwest 449 517 32,000  Level FlightAware
09:49PM -15.6820 -48.1470 336° Northwest 449 517 32,000  Level FlightAware
09:49PM -15.6100 -48.1790 337° Northwest 442 509 32,000  Level FlightAware
09:50PM -15.5120 -48.2250 336° Northwest 449 517 32,000  Level FlightAware
09:51PM -15.4320 -48.2610 337° Northwest 452 520 32,000  Level FlightAware
09:52PM -15.3460 -48.3010 336° Northwest 450 518 32,000  Level FlightAware
09:53PM -15.1700 -48.3820 336° Northwest 449 517 32,000  Level FlightAware
09:54PM -15.0860 -48.4210 336° Northwest 449 517 32,000  Level FlightAware
09:55PM -15.0090 -48.4560 336° Northwest 450 518 32,000  Level FlightAware
09:55PM -14.9230 -48.4950 336° Northwest 451 519 32,000  Level FlightAware
09:56PM -14.8460 -48.5300 336° Northwest 452 520 32,000  Level FlightAware
09:57PM -14.7760 -48.5620 336° Northwest 454 522 32,000  Level FlightAware
09:57PM -14.6980 -48.5970 337° Northwest 453 521 32,000  Level FlightAware
09:58PM -14.6280 -48.6290 336° Northwest 454 522 32,000  Level FlightAware
09:59PM -14.5500 -48.6650 336° Northwest 454 522 32,000  Level FlightAware
10:00PM -14.4450 -48.7120 337° Northwest 455 524 32,000  Level FlightAware
10:00PM -14.3840 -48.7400 336° Northwest 455 524 32,000  Level FlightAware
10:01PM -14.3030 -48.7780 336° Northwest 455 524 32,000  Level FlightAware
10:02PM -14.2370 -48.8080 336° Northwest 455 524 32,000  Level FlightAware
10:02PM -14.1200 -48.8590 337° Northwest 457 526 32,000  Level FlightAware
10:03PM -14.0550 -48.8890 336° Northwest 457 526 32,000  Level FlightAware
10:04PM -13.9720 -48.9270 336° Northwest 457 526 32,000  Level FlightAware
10:05PM -13.9070 -48.9570 336° Northwest 457 526 32,000  Level FlightAware
10:05PM -13.8410 -48.9870 336° Northwest 457 526 32,000  Level FlightAware
10:06PM -13.7750 -49.0170 336° Northwest 457 526 32,000  Level FlightAware
10:07PM -13.7100 -49.0470 336° Northwest 457 526 32,000  Level FlightAware
10:07PM -13.6440 -49.0770 336° Northwest 457 526 32,000  Level FlightAware
10:08PM -13.5780 -49.1070 336° Northwest 457 526 32,000  Level FlightAware
10:09PM -13.4960 -49.1450 336° Northwest 457 526 32,000  Level FlightAware
10:09PM -13.4310 -49.1750 336° Northwest 457 526 32,000  Level FlightAware
10:10PM -13.3650 -49.2050 336° Northwest 457 526 32,000  Level FlightAware
10:11PM -13.2830 -49.2420 336° Northwest 457 526 32,000  Level FlightAware
10:12PM -13.2170 -49.2720 336° Northwest 457 526 32,000  Level FlightAware
10:14PM -12.9898 -49.3660 338° Northwest  Level Estimated
10:15PM -12.8733 -49.4141 338° Northwest  Level Estimated
10:16PM -12.7568 -49.4622 338° Northwest  Level Estimated
10:17PM -12.6403 -49.5102 338° Northwest  Level Estimated
10:18PM -12.5237 -49.5582 338° Northwest  Level Estimated
10:19PM -12.4072 -49.6061 338° Northwest  Level Estimated
10:20PM -12.2906 -49.6540 338° Northwest  Level Estimated
10:21PM -12.1740 -49.7019 338° Northwest  Level Estimated
10:22PM -12.0575 -49.7497 338° Northwest  Level Estimated
10:23PM -11.9409 -49.7974 338° Northwest  Level Estimated
10:24PM -11.8243 -49.8452 338° Northwest  Level Estimated
10:25PM -11.7077 -49.8929 338° Northwest  Level Estimated
10:26PM -11.5911 -49.9405 338° Northwest  Level Estimated
10:27PM -11.4745 -49.9881 338° Northwest  Level Estimated
10:28PM -11.3579 -50.0357 338° Northwest  Level Estimated
10:29PM -11.2412 -50.0832 338° Northwest  Level Estimated
10:30PM -11.1246 -50.1307 338° Northwest  Level Estimated
10:31PM -11.0079 -50.1782 338° Northwest  Level Estimated
10:32PM -10.8913 -50.2256 338° Northwest  Level Estimated
10:33PM -10.7746 -50.2730 338° Northwest  Level Estimated
10:34PM -10.6580 -50.3203 338° Northwest  Level Estimated
10:35PM -10.5413 -50.3676 338° Northwest  Level Estimated
10:36PM -10.4246 -50.4149 338° Northwest  Level Estimated
10:37PM -10.3079 -50.4621 338° Northwest  Level Estimated
10:38PM -10.1912 -50.5093 338° Northwest  Level Estimated
10:39PM -10.0745 -50.5565 338° Northwest  Level Estimated
10:40PM -9.9578 -50.6036 338° Northwest  Level Estimated
10:41PM -9.8411 -50.6507 338° Northwest  Level Estimated
10:42PM -9.7244 -50.6978 338° Northwest  Level Estimated
10:43PM -9.6077 -50.7448 338° Northwest  Level Estimated
10:44PM -9.4909 -50.7918 338° Northwest  Level Estimated
10:45PM -9.3742 -50.8388 338° Northwest  Level Estimated
10:46PM -9.2575 -50.8857 338° Northwest  Level Estimated
10:47PM -9.1407 -50.9327 338° Northwest  Level Estimated
10:48PM -9.0239 -50.9795 338° Northwest  Level Estimated
10:49PM -8.9072 -51.0264 338° Northwest  Level Estimated
10:50PM -8.7904 -51.0732 338° Northwest  Level Estimated
10:51PM -8.6736 -51.1200 338° Northwest  Level Estimated
10:52PM -8.5569 -51.1667 338° Northwest  Level Estimated
10:53PM -8.4401 -51.2135 338° Northwest  Level Estimated
10:54PM -8.3233 -51.2602 338° Northwest  Level Estimated
10:55PM -8.2065 -51.3068 338° Northwest  Level Estimated
10:56PM -8.0897 -51.3535 338° Northwest  Level Estimated
10:57PM -7.9729 -51.4001 338° Northwest  Level Estimated
10:58PM -7.8561 -51.4467 338° Northwest  Level Estimated
10:59PM -7.7392 -51.4933 338° Northwest  Level Estimated
11:00PM -7.6224 -51.5398 338° Northwest  Level Estimated
11:01PM -7.5056 -51.5863 338° Northwest  Level Estimated
11:02PM -7.3888 -51.6328 338° Northwest  Level Estimated
11:03PM -7.2719 -51.6792 338° Northwest  Level Estimated
11:04PM -7.1551 -51.7257 338° Northwest  Level Estimated
11:05PM -7.0382 -51.7721 338° Northwest  Level Estimated
11:06PM -6.9214 -51.8185 338° Northwest  Level Estimated
11:07PM -6.8045 -51.8649 338° Northwest  Level Estimated
11:08PM -6.6877 -51.9112 339° North  Level Estimated
11:09PM -6.5708 -51.9575 339° North  Level Estimated
11:10PM -6.4539 -52.0038 339° North  Level Estimated
11:11PM -6.3370 -52.0501 339° North  Level Estimated
11:12PM -6.2202 -52.0964 339° North  Level Estimated
11:13PM -6.1033 -52.1426 339° North  Level Estimated
11:14PM -5.9864 -52.1888 339° North  Level Estimated
11:15PM -5.8695 -52.2350 339° North  Level Estimated
11:16PM -5.7526 -52.2812 339° North  Level Estimated
11:17PM -5.6357 -52.3274 339° North  Level Estimated
11:18PM -5.5188 -52.3735 339° North  Level Estimated
11:19PM -5.4019 -52.4196 339° North  Level Estimated
11:20PM -5.2850 -52.4658 339° North  Level Estimated
11:21PM -5.1681 -52.5118 339° North  Level Estimated
11:22PM -5.0512 -52.5579 339° North  Level Estimated
11:23PM -4.9343 -52.6040 339° North  Level Estimated
11:24PM -4.8173 -52.6500 339° North  Level Estimated
11:25PM -4.7004 -52.6960 339° North  Level Estimated
11:26PM -4.5835 -52.7420 339° North  Level Estimated
11:27PM -4.4666 -52.7880 339° North  Level Estimated
11:28PM -4.3496 -52.8340 339° North  Level Estimated
11:29PM -4.2327 -52.8800 339° North  Level Estimated
11:30PM -4.1158 -52.9259 339° North  Level Estimated
11:31PM -3.9988 -52.9719 339° North  Level Estimated
11:32PM -3.8819 -53.0178 339° North  Level Estimated
11:33PM -3.7649 -53.0637 339° North  Level Estimated
11:34PM -3.6480 -53.1096 339° North  Level Estimated
11:35PM -3.5310 -53.1555 339° North  Level Estimated
11:36PM -3.4141 -53.2014 339° North  Level Estimated
11:37PM -3.2971 -53.2472 339° North  Level Estimated
11:38PM -3.1802 -53.2931 339° North  Level Estimated
11:39PM -3.0632 -53.3389 339° North  Level Estimated
11:40PM -2.9462 -53.3847 339° North  Level Estimated
11:41PM -2.8293 -53.4306 339° North  Level Estimated
11:42PM -2.7123 -53.4764 339° North  Level Estimated
11:43PM -2.5954 -53.5222 339° North  Level Estimated
11:44PM -2.4784 -53.5680 339° North  Level Estimated
11:45PM -2.3614 -53.6138 339° North  Level Estimated
11:46PM -2.2444 -53.6595 339° North  Level Estimated
11:47PM -2.1275 -53.7053 339° North  Level Estimated
11:48PM -2.0105 -53.7511 339° North  Level Estimated
11:49PM -1.8935 -53.7968 339° North  Level Estimated
11:50PM -1.7765 -53.8426 339° North  Level Estimated
11:51PM -1.6596 -53.8884 339° North  Level Estimated
11:52PM -1.5426 -53.9341 339° North  Level Estimated
11:53PM -1.4256 -53.9798 339° North  Level Estimated
11:54PM -1.3086 -54.0256 339° North  Level Estimated
11:55PM -1.1916 -54.0713 339° North  Level Estimated
11:56PM -1.0747 -54.1170 339° North  Level Estimated
11:57PM -0.9577 -54.1627 339° North  Level Estimated
11:58PM -0.8407 -54.2085 339° North  Level Estimated
11:59PM -0.7237 -54.2542 339° North  Level Estimated
12:00AM -0.6067 -54.2999 339° North  Level Estimated
12:01AM -0.4898 -54.3456 339° North  Level Estimated
12:02AM -0.3728 -54.3913 339° North  Level Estimated
12:03AM -0.2558 -54.4370 339° North  Level Estimated
12:04AM -0.1388 -54.4827 339° North  Level Estimated
12:05AM -0.0218 -54.5284 339° North  Level Estimated
12:06AM 0.0952 -54.5742 339° North  Level Estimated
12:07AM 0.2122 -54.6199 339° North  Level Estimated
12:08AM 0.3292 -54.6656 339° North  Level Estimated
12:09AM 0.4462 -54.7113 339° North  Level Estimated
12:10AM 0.5631 -54.7570 339° North  Level Estimated
12:11AM 0.6801 -54.8027 339° North  Level Estimated
12:12AM 0.7971 -54.8484 339° North  Level Estimated
12:13AM 0.9141 -54.8941 339° North  Level Estimated
12:14AM 1.0311 -54.9398 339° North  Level Estimated
12:15AM 1.1480 -54.9856 339° North  Level Estimated
12:16AM 1.2650 -55.0313 339° North  Level Estimated
12:17AM 1.3820 -55.0770 339° North  Level Estimated
12:18AM 1.4990 -55.1228 339° North  Level Estimated
12:19AM 1.6160 -55.1685 339° North  Level Estimated
12:20AM 1.7329 -55.2143 339° North  Level Estimated
12:21AM 1.8499 -55.2600 339° North  Level Estimated
12:22AM 1.9669 -55.3058 339° North  Level Estimated
12:23AM 2.0839 -55.3515 339° North  Level Estimated
12:24AM 2.2009 -55.3973 339° North  Level Estimated
12:25AM 2.3178 -55.4431 339° North  Level Estimated
12:26AM 2.4348 -55.4889 339° North  Level Estimated
12:27AM 2.5518 -55.5347 339° North  Level Estimated
12:28AM 2.6687 -55.5805 339° North  Level Estimated
12:29AM 2.7857 -55.6263 339° North  Level Estimated
12:30AM 2.9027 -55.6721 339° North  Level Estimated
12:31AM 3.0196 -55.7179 339° North  Level Estimated
12:32AM 3.1366 -55.7638 339° North  Level Estimated
12:33AM 3.2535 -55.8096 339° North  Level Estimated
12:34AM 3.3705 -55.8555 339° North  Level Estimated
12:35AM 3.4874 -55.9013 339° North  Level Estimated
12:36AM 3.6044 -55.9472 339° North  Level Estimated
12:37AM 3.7213 -55.9931 339° North  Level Estimated
12:38AM 3.8383 -56.0390 339° North  Level Estimated
12:39AM 3.9552 -56.0849 339° North  Level Estimated
12:40AM 4.0722 -56.1309 339° North  Level Estimated
12:41AM 4.1891 -56.1768 339° North  Level Estimated
12:42AM 4.3061 -56.2228 339° North  Level Estimated
12:43AM 4.4230 -56.2687 339° North  Level Estimated
12:44AM 4.5399 -56.3147 339° North  Level Estimated
12:45AM 4.6568 -56.3607 339° North  Level Estimated
12:46AM 4.7738 -56.4068 339° North  Level Estimated
12:47AM 4.8907 -56.4528 339° North  Level Estimated
12:48AM 5.0076 -56.4988 339° North  Level Estimated
12:49AM 5.1245 -56.5449 339° North  Level Estimated
12:50AM 5.2414 -56.5910 339° North  Level Estimated
12:51AM 5.3584 -56.6371 339° North  Level Estimated
12:52AM 5.4753 -56.6832 339° North  Level Estimated
12:53AM 5.5922 -56.7294 339° North  Level Estimated
12:54AM 5.7091 -56.7755 339° North  Level Estimated
12:55AM 5.8260 -56.8217 339° North  Level Estimated
12:56AM 5.9429 -56.8679 339° North  Level Estimated
12:57AM 6.0597 -56.9141 339° North  Level Estimated
12:58AM 6.1766 -56.9603 339° North  Level Estimated
12:59AM 6.2935 -57.0065 339° North  Level Estimated
01:00AM 6.4104 -57.0528 339° North  Level Estimated
01:01AM 6.5272 -57.0991 339° North  Level Estimated
01:02AM 6.6441 -57.1454 339° North  Level Estimated
01:03AM 6.7610 -57.1918 339° North  Level Estimated
01:04AM 6.8778 -57.2381 339° North  Level Estimated
01:05AM 6.9947 -57.2845 338° Northwest  Level Estimated
01:06AM 7.1115 -57.3309 338° Northwest  Level Estimated
01:07AM 7.2284 -57.3773 338° Northwest  Level Estimated
01:08AM 7.3452 -57.4238 338° Northwest  Level Estimated
01:09AM 7.4620 -57.4703 338° Northwest  Level Estimated
01:10AM 7.5789 -57.5168 338° Northwest  Level Estimated
01:11AM 7.6957 -57.5633 338° Northwest  Level Estimated
01:12AM 7.8125 -57.6099 338° Northwest  Level Estimated
01:13AM 7.9293 -57.6564 338° Northwest  Level Estimated
01:14AM 8.0462 -57.7030 338° Northwest  Level Estimated
01:15AM 8.1629 -57.7497 338° Northwest  Level Estimated
01:16AM 8.2797 -57.7963 338° Northwest  Level Estimated
01:17AM 8.3965 -57.8430 338° Northwest  Level Estimated
01:18AM 8.5133 -57.8898 338° Northwest  Level Estimated
01:19AM 8.6301 -57.9365 338° Northwest  Level Estimated
01:20AM 8.7469 -57.9833 338° Northwest  Level Estimated
01:21AM 8.8637 -58.0301 338° Northwest  Level Estimated
01:22AM 8.9814 -58.0773 338° Northwest  Level Estimated
01:23AM 9.0991 -58.1246 338° Northwest  Level Estimated
01:24AM 9.2169 -58.1718 338° Northwest  Level Estimated
01:25AM 9.3346 -58.2192 338° Northwest  Level Estimated
01:26AM 9.4523 -58.2665 338° Northwest  Level Estimated
01:27AM 9.5700 -58.3139 338° Northwest  Level Estimated
01:28AM 9.6877 -58.3613 338° Northwest  Level Estimated
01:29AM 9.8054 -58.4088 338° Northwest  Level Estimated
01:30AM 9.9231 -58.4562 338° Northwest  Level Estimated
01:31AM 10.0408 -58.5038 338° Northwest  Level Estimated
01:32AM 10.1585 -58.5513 338° Northwest  Level Estimated
01:33AM 10.2761 -58.5989 338° Northwest  Level Estimated
01:34AM 10.3938 -58.6465 338° Northwest  Level Estimated
01:34AM 12.4580 -59.7970 338° Northwest 472 543 34,000  Level FlightAware
01:34AM 12.5410 -59.8300 339° North 472 543 34,000  Level FlightAware
01:35AM 10.5115 -58.6942 338° Northwest  Level Estimated
01:35AM 12.6410 -59.8650 341° North 471 542 34,000  Level FlightAware
01:36AM 12.7270 -59.8980 339° North 472 543 34,000  Level FlightAware
01:37AM 12.8260 -59.9350 340° North 472 543 34,000  Level FlightAware
01:37AM 12.8960 -59.9610 340° North 472 543 34,000  Level FlightAware
01:38AM 12.9760 -59.9910 340° North 473 544 34,000  Level FlightAware
01:39AM 13.0780 -60.0300 340° North 473 544 34,000  Level FlightAware
01:39AM 13.1630 -60.0620 340° North 473 544 34,000  Level FlightAware
01:40AM 13.2580 -60.0980 340° North 473 544 34,000  Level FlightAware
01:41AM 13.3360 -60.1270 340° North 473 544 34,000  Level FlightAware
01:41AM 13.4230 -60.1610 339° North 474 545 34,000  Level FlightAware
01:42AM 13.5150 -60.1950 340° North 475 547 34,000  Level FlightAware
01:43AM 13.5930 -60.2250 340° North 476 548 34,000  Level FlightAware
01:43AM 13.6730 -60.2560 339° North 476 548 34,000  Level FlightAware
01:44AM 13.7710 -60.2930 340° North 476 548 34,000  Level FlightAware
01:45AM 13.8580 -60.3270 339° North 476 548 34,000  Level FlightAware
01:46AM 13.9460 -60.3610 339° North 476 548 34,000  Level FlightAware
01:46AM 14.0440 -60.3990 339° North 477 549 34,000  Level FlightAware
01:47AM 14.1250 -60.4300 340° North 477 549 34,000  Level FlightAware
01:48AM 14.2060 -60.4610 340° North 477 549 34,000  Level FlightAware
01:48AM 14.3000 -60.4980 339° North 477 549 34,000  Level FlightAware
01:49AM 14.3810 -60.5290 340° North 477 549 34,000  Level FlightAware
01:50AM 14.4720 -60.5640 340° North 475 547 34,000  Level FlightAware
01:51AM 14.5550 -60.5970 339° North 475 547 34,000  Level FlightAware
01:51AM 14.6360 -60.6280 340° North 476 548 34,000  Level FlightAware
01:52AM 14.7110 -60.6580 339° North 477 549 34,000  Level FlightAware
01:53AM 14.8180 -60.6990 340° North 477 549 34,000  Level FlightAware
01:54AM 14.9230 -60.7400 339° North 479 551 34,000  Level FlightAware
01:55AM 15.0460 -60.7890 339° North 477 549 34,000  Level FlightAware
01:55AM 15.1310 -60.8220 339° North 477 549 34,000  Level FlightAware
01:56AM 15.2120 -60.8530 340° North 476 548 34,000  Level FlightAware
01:57AM 15.2900 -60.8840 339° North 476 548 34,000  Level FlightAware
01:57AM 15.3830 -60.9210 339° North 479 551 34,000  Level FlightAware
01:58AM 15.4870 -60.9610 340° North 477 549 34,000  Level FlightAware
01:59AM 15.5570 -60.9890 339° North 477 549 34,000  Level FlightAware
01:59AM 15.6450 -61.0240 339° North 479 551 34,000  Level FlightAware
02:00AM 15.7430 -61.0620 340° North 479 551 34,000  Level FlightAware
02:01AM 15.8080 -61.0880 339° North 479 551 34,000  Level FlightAware
02:02AM 15.9190 -61.1310 340° North 479 551 34,000  Level FlightAware
02:02AM 16.0060 -61.1660 339° North 478 550 34,000  Level FlightAware
02:03AM 16.1160 -61.2090 339° North 478 550 34,000  Level FlightAware
02:04AM 16.2300 -61.2540 339° North 477 549 34,000  Level FlightAware
02:05AM 16.3070 -61.2850 339° North 477 549 34,000  Level FlightAware
02:05AM 16.4050 -61.3230 340° North 477 549 34,000  Level FlightAware
02:06AM 16.4860 -61.3550 339° North 476 548 34,000  Level FlightAware
02:07AM 16.5670 -61.3870 339° North 476 548 34,000  Level FlightAware
02:08AM 16.6700 -61.4280 339° North 474 545 34,000  Level FlightAware
02:08AM 16.7550 -61.4620 339° North 471 542 34,000  Level FlightAware
02:09AM 16.8290 -61.4910 339° North 470 541 34,000  Level FlightAware
02:10AM 16.9240 -61.5280 340° North 467 537 34,000  Level FlightAware
02:10AM 17.0070 -61.5610 339° North 466 536 34,000  Level FlightAware
02:11AM 17.0860 -61.5920 339° North 467 537 34,000  Level FlightAware
02:12AM 17.1570 -61.6200 339° North 466 536 34,000  Level FlightAware
02:12AM 17.2540 -61.6590 339° North 466 536 34,000  Level FlightAware
02:13AM 17.3420 -61.6940 339° North 464 534 34,000  Level FlightAware
02:14AM 17.4440 -61.7340 339° North 461 531 34,000  Level FlightAware
02:15AM 17.5230 -61.7650 339° North 460 529 34,000  Level FlightAware
02:15AM 17.6130 -61.8010 339° North 459 528 34,000  Level FlightAware
02:16AM 17.6940 -61.8330 339° North 458 527 34,000  Level FlightAware
02:17AM 17.7920 -61.8720 339° North 458 527 34,000  Level FlightAware
02:18AM 17.8600 -61.8990 339° North 458 527 34,000  Level FlightAware
02:18AM 17.9270 -61.9260 339° North 458 527 34,000  Level FlightAware
02:19AM 18.0490 -61.9630 344° North 469 540 34,000  Level FlightAware
02:20AM 18.1460 -61.9810 350° North 470 541 34,000  Level FlightAware
02:20AM 18.2390 -61.9980 350° North 470 541 34,000  Level FlightAware
02:21AM 18.3220 -62.0140 350° North 470 541 34,000  Level FlightAware
02:22AM 18.4060 -62.0290 350° North 470 541 34,000  Level FlightAware
02:22AM 18.4790 -62.0430 350° North 470 541 34,000  Level FlightAware
02:23AM 18.5520 -62.0560 350° North 470 541 34,000  Level FlightAware
02:24AM 18.6240 -62.0700 350° North 470 541 34,000  Level FlightAware
02:25AM 18.7770 -62.0990 350° North 469 540 34,000  Level FlightAware
02:25AM 18.8500 -62.1130 350° North 469 540 34,000  Level FlightAware
02:26AM 18.9930 -62.1400 350° North 465 535 34,000  Level FlightAware
02:27AM 19.0710 -62.1550 350° North 464 534 34,000  Level FlightAware
02:28AM 19.1550 -62.1710 350° North 464 534 34,000  Level FlightAware
02:28AM 19.2270 -62.1840 350° North 464 534 34,000  Level FlightAware
02:29AM 19.2990 -62.1980 350° North 464 534 34,000  Level FlightAware
02:30AM 19.3890 -62.2140 350° North 464 534 34,000  Level FlightAware
02:30AM 19.4610 -62.2280 350° North 464 534 34,000  Level FlightAware
02:31AM 19.5320 -62.2410 350° North 464 534 34,000  Level FlightAware
02:32AM 19.6040 -62.2550 350° North 464 534 34,000  Level FlightAware
02:32AM 19.6760 -62.2680 350° North 464 534 34,000  Level FlightAware
02:33AM 19.7480 -62.2820 350° North 464 534 34,000  Level FlightAware
02:34AM 19.8380 -62.2990 350° North 464 534 34,000  Level FlightAware
02:35AM 19.9100 -62.3120 350° North 464 534 34,000  Level FlightAware
02:35AM 19.9820 -62.3250 350° North 464 534 34,000  Level FlightAware
02:36AM 20.0540 -62.3390 350° North 464 534 34,000  Level FlightAware
02:37AM 20.1250 -62.3520 350° North 464 534 34,000 -120 Level FlightAware
02:37AM 20.3000 -62.4000 350° North 450 518 33,900 -120 Descending San Juan Center
02:38AM 20.4167 -62.4333 345° North 450 518 33,900  Level San Juan Center
02:39AM 20.5333 -62.4500 349° North 451 519 34,000  Climbing New York Oceanic (ODAPS)
02:42AM 20.8500 -62.5167 350° North 454 522 34,000  Level New York Oceanic (ODAPS)
02:46AM 21.4365 -62.6300 349° North 451 519 34,000  Level FlightAware Transoceanic
02:46AM 21.3833 -62.6333 350° North 451 519 34,000  Level New York Oceanic (ODAPS)
02:47AM 21.5655 -62.6559 349° North 451 519 34,000  Level FlightAware Transoceanic
02:48AM 21.6452 -62.6746 349° North 454 522 34,000  Level FlightAware Transoceanic
02:49AM 21.7777 -62.7011 349° North 454 522 34,000  Level FlightAware Transoceanic
02:50AM 21.9102 -62.7276 349° North 454 522 34,000  Level FlightAware Transoceanic
02:51AM 22.0427 -62.7542 349° North 454 522 34,000  Level FlightAware Transoceanic
02:52AM 22.1305 -62.7789 350° North 451 519 34,000  Level FlightAware Transoceanic
02:53AM 22.2550 -62.8034 350° North 451 519 34,000 660 Level FlightAware Transoceanic
02:53AM 22.2500 -62.8333 337° Northwest 447 514 35,000  Climbing New York Oceanic (ODAPS)
02:54AM 22.3795 -62.8278 350° North 451 519 34,000 -660 Descending FlightAware Transoceanic
02:55AM 22.5040 -62.8523 350° North 451 519 34,000 540 Level FlightAware Transoceanic
02:55AM 22.5167 -62.9500 337° Northwest 452 520 35,000  Climbing New York Oceanic (ODAPS)
02:56AM 22.6286 -62.8769 350° North 451 519 34,000 -840 Descending FlightAware Transoceanic
02:57AM 22.7531 -62.9015 350° North 451 519 34,000  Level FlightAware Transoceanic
02:58AM 22.8776 -62.9261 350° North 451 519 34,000 480 Level FlightAware Transoceanic
02:59AM 22.9734 -63.1602 337° Northwest 447 514 35,000 480 Climbing FlightAware Transoceanic
03:00AM 23.0939 -63.2150 337° Northwest 447 514 35,000  Level FlightAware Transoceanic
03:01AM 23.2144 -63.2699 337° Northwest 447 514 35,000  Level FlightAware Transoceanic
03:02AM 23.3589 -63.3327 337° Northwest 452 520 35,000  Level FlightAware Transoceanic
03:03AM 23.4792 -63.3877 337° Northwest 452 520 35,000  Level FlightAware Transoceanic
03:03AM 23.3833 -63.3500 337° Northwest 459 528 35,000  Level New York Oceanic (ODAPS)
03:04AM 23.5994 -63.4429 337° Northwest 452 520 35,000  Level FlightAware Transoceanic
03:05AM 23.7196 -63.4982 337° Northwest 452 520 35,000  Level FlightAware Transoceanic
03:06AM 23.8398 -63.5536 337° Northwest 452 520 35,000  Level FlightAware Transoceanic
03:07AM 23.9600 -63.6090 337° Northwest 452 520 35,000  Level FlightAware Transoceanic
03:07AM 23.8667 -63.5833 332° Northwest 454 522 35,000  Level New York Oceanic (ODAPS)
03:08AM 24.0801 -63.6646 337° Northwest 452 520 35,000  Level FlightAware Transoceanic
03:08AM 23.9667 -63.6500 332° Northwest 457 526 35,000  Level New York Oceanic (ODAPS)
03:09AM 24.1154 -63.6868 337° Northwest 459 528 35,000  Level FlightAware Transoceanic
03:09AM 24.1167 -63.7333 332° Northwest 455 524 35,000  Level New York Oceanic (ODAPS)
03:10AM 24.2373 -63.7433 337° Northwest 459 528 35,000  Level FlightAware Transoceanic
03:11AM 24.3592 -63.7999 337° Northwest 459 528 35,000  Level FlightAware Transoceanic
03:12AM 24.4811 -63.8566 337° Northwest 459 528 35,000  Level FlightAware Transoceanic
03:13AM 24.5372 -63.9693 332° Northwest 454 522 35,000 -600 Level FlightAware Transoceanic
03:13AM 17.0100 -61.5620 332° Northwest 467 537 34,000  Descending FlightAware
03:14AM 24.6696 -64.0546 332° Northwest 457 526 35,000  Climbing FlightAware Transoceanic
03:14AM 17.0780 -61.5900 339° North 467 537 34,000  Descending FlightAware
03:15AM 24.8162 -64.1373 332° Northwest 455 524 35,000  Climbing FlightAware Transoceanic
03:15AM 17.1470 -61.6170 332° Northwest 467 537 34,000 -1,440 Descending FlightAware
03:15AM 17.2150 -61.6450 339° North 467 537 34,000  Level FlightAware
03:16AM 17.3010 -61.6790 339° North 467 537 34,000  Level FlightAware
03:17AM 17.3700 -61.7070 339° North 467 537 34,000  Level FlightAware
03:17AM 17.4380 -61.7350 339° North 467 537 34,000  Level FlightAware
03:18AM 17.5070 -61.7620 340° North 467 537 34,000  Level FlightAware
03:19AM 17.5750 -61.7900 339° North 467 537 34,000  Level FlightAware
03:20AM 17.6610 -61.8240 339° North 467 537 34,000  Level FlightAware
03:20AM 17.7300 -61.8520 339° North 467 537 34,000  Level FlightAware
03:21AM 17.7980 -61.8800 339° North 467 537 34,000  Level FlightAware
03:22AM 17.8670 -61.9070 340° North 467 537 34,000  Level FlightAware
03:22AM 17.9350 -61.9350 339° North 467 537 34,000 720 Level FlightAware
03:23AM 25.6833 -64.6500 332° Northwest 468 539 35,000 120 Climbing New York Oceanic (ODAPS)
03:25AM 18.2105 -62.0013 349° North  Level FlightAware Approximate
03:26AM 18.3369 -62.0261 349° North  Level FlightAware Approximate
03:27AM 18.4634 -62.0509 349° North  Level FlightAware Approximate
03:28AM 18.5898 -62.0757 349° North  Level FlightAware Approximate
03:29AM 26.3882 -65.0687 332° Northwest 468 539 35,000  Level FlightAware Transoceanic
03:30AM 26.5055 -65.1390 332° Northwest 468 539 35,000  Level FlightAware Transoceanic
03:31AM 26.6229 -65.2094 332° Northwest 468 539 35,000  Level FlightAware Transoceanic
03:32AM 26.7401 -65.2800 332° Northwest 468 539 35,000  Level FlightAware Transoceanic
03:33AM 26.8574 -65.3507 332° Northwest 468 539 35,000  Level FlightAware Transoceanic
03:34AM 26.9746 -65.4215 332° Northwest 468 539 35,000  Level FlightAware Transoceanic
03:35AM 27.0918 -65.4925 332° Northwest 468 539 35,000  Level FlightAware Transoceanic
03:35AM 27.0667 -65.4833 332° Northwest 484 557 35,000  Level New York Oceanic (ODAPS)
03:36AM 27.2089 -65.5637 332° Northwest 468 539 35,000  Level FlightAware Transoceanic
03:37AM 27.3260 -65.6350 332° Northwest 468 539 35,000  Level FlightAware Transoceanic
03:37AM 27.3000 -65.6167 332° Northwest 488 562 35,000  Level New York Oceanic (ODAPS)
03:38AM 27.4431 -65.7065 332° Northwest 468 539 35,000  Level FlightAware Transoceanic
03:39AM 27.5601 -65.7781 331° Northwest 468 539 35,000  Level FlightAware Transoceanic
03:40AM 27.6771 -65.8498 331° Northwest 468 539 35,000  Level FlightAware Transoceanic
03:41AM 27.7731 -65.9139 331° Northwest 484 557 35,000  Level FlightAware Transoceanic
03:42AM 27.8907 -65.9862 331° Northwest 484 557 35,000  Level FlightAware Transoceanic
03:43AM 28.0064 -66.0507 331° Northwest 488 562 35,000  Level FlightAware Transoceanic
03:44AM 28.1240 -66.1235 331° Northwest 488 562 35,000  Level FlightAware Transoceanic
03:45AM 28.2415 -66.1966 331° Northwest 488 562 35,000  Level FlightAware Transoceanic
03:46AM 28.3591 -66.2698 331° Northwest 488 562 35,000  Level FlightAware Transoceanic
03:47AM 28.4765 -66.3431 331° Northwest 488 562 35,000  Level FlightAware Transoceanic
03:48AM 28.5940 -66.4167 331° Northwest 488 562 35,000  Level FlightAware Transoceanic
03:49AM 28.7114 -66.4904 331° Northwest 488 562 35,000  Level FlightAware Transoceanic
03:50AM 28.8288 -66.5642 331° Northwest 488 562 35,000  Level FlightAware Transoceanic
03:50AM 28.9833 -66.6667 331° Northwest 494 568 35,000  Level New York Oceanic (ODAPS)
03:51AM 28.9461 -66.6383 331° Northwest 488 562 35,000  Level FlightAware Transoceanic
03:52AM 29.0634 -66.7124 331° Northwest 488 562 35,000  Level FlightAware Transoceanic
03:53AM 29.1806 -66.7868 331° Northwest 488 562 35,000  Level FlightAware Transoceanic
03:54AM 29.2978 -66.8613 331° Northwest 488 562 35,000  Level FlightAware Transoceanic
03:55AM 29.4149 -66.9360 331° Northwest 488 562 35,000  Level FlightAware Transoceanic
03:56AM 29.5321 -67.0109 331° Northwest 488 562 35,000  Level FlightAware Transoceanic
03:57AM 29.7103 -67.1287 331° Northwest 494 568 35,000  Level FlightAware Transoceanic
03:58AM 29.8313 -67.2063 331° Northwest 494 568 35,000  Level FlightAware Transoceanic
03:59AM 29.9522 -67.2841 331° Northwest 494 568 35,000  Level FlightAware Transoceanic
04:00AM 30.0731 -67.3622 331° Northwest 494 568 35,000  Level FlightAware Transoceanic
04:01AM 30.1940 -67.4404 331° Northwest 494 568 35,000  Level FlightAware Transoceanic
04:02AM 30.3148 -67.5188 331° Northwest 494 568 35,000  Level FlightAware Transoceanic
04:03AM 30.4356 -67.5974 331° Northwest 494 568 35,000  Level FlightAware Transoceanic
04:04AM 30.5563 -67.6762 331° Northwest 494 568 35,000  Level FlightAware Transoceanic
04:04AM 30.6667 -67.7500 331° Northwest 501 577 35,000  Level New York Oceanic (ODAPS)
04:05AM 30.6770 -67.7552 331° Northwest 494 568 35,000  Level FlightAware Transoceanic
04:06AM 30.7976 -67.8344 331° Northwest 494 568 35,000  Level FlightAware Transoceanic
04:07AM 30.9182 -67.9138 331° Northwest 494 568 35,000  Level FlightAware Transoceanic
04:08AM 31.0387 -67.9933 330° Northwest 494 568 35,000  Level FlightAware Transoceanic
04:09AM 31.1592 -68.0731 330° Northwest 494 568 35,000  Level FlightAware Transoceanic
04:10AM 31.2796 -68.1531 330° Northwest 494 568 35,000  Level FlightAware Transoceanic
04:10AM 31.4000 -68.2333 341° North 495 570 35,000  Level New York Oceanic (ODAPS)
04:11AM 31.4000 -68.2333 341° North 501 577 35,000  Level FlightAware Transoceanic
04:12AM 31.5295 -68.2855 341° North 501 577 35,000  Level FlightAware Transoceanic
04:13AM 31.6590 -68.3379 341° North 501 577 35,000  Level FlightAware Transoceanic
04:14AM 31.7884 -68.3903 341° North 501 577 35,000  Level FlightAware Transoceanic
04:15AM 31.9178 -68.4429 341° North 501 577 35,000  Level FlightAware Transoceanic
04:16AM 32.0472 -68.4957 341° North 501 577 35,000  Level FlightAware Transoceanic
04:17AM 32.1928 -68.5553 341° North 495 570 35,000  Level FlightAware Transoceanic
04:18AM 32.3248 -68.6095 341° North 495 570 35,000  Level FlightAware Transoceanic
04:18AM 32.4333 -68.6667 341° North 494 568 35,000  Level New York Oceanic (ODAPS)
04:19AM 32.4569 -68.6638 341° North 495 570 35,000  Level FlightAware Transoceanic
04:20AM 32.5889 -68.7183 341° North 495 570 35,000  Level FlightAware Transoceanic
04:21AM 32.7209 -68.7730 341° North 495 570 35,000  Level FlightAware Transoceanic
04:22AM 32.8528 -68.8278 341° North 495 570 35,000  Level FlightAware Transoceanic
04:23AM 32.9848 -68.8828 341° North 495 570 35,000  Level FlightAware Transoceanic
04:24AM 33.1167 -68.9380 341° North 495 570 35,000  Level FlightAware Transoceanic
04:25AM 33.2285 -68.9957 341° North 494 568 35,000  Level FlightAware Transoceanic
04:26AM 33.3610 -69.0511 341° North 494 568 35,000  Level FlightAware Transoceanic
04:27AM 33.4934 -69.1067 341° North 494 568 35,000  Level FlightAware Transoceanic
04:28AM 33.6258 -69.1625 341° North 494 568 35,000  Level FlightAware Transoceanic
04:29AM 33.7582 -69.2184 341° North 494 568 35,000  Level FlightAware Transoceanic
04:30AM 33.8905 -69.2745 341° North 494 568 35,000  Level FlightAware Transoceanic
04:31AM 34.0229 -69.3308 341° North 494 568 35,000  Level FlightAware Transoceanic
04:32AM 34.1552 -69.3873 341° North 494 568 35,000  Level FlightAware Transoceanic
04:32AM 34.2500 -69.4167 340° North 499 574 35,000  Level New York Oceanic (ODAPS)
04:33AM 34.2874 -69.4439 340° North 494 568 35,000  Level FlightAware Transoceanic
04:34AM 34.4197 -69.5007 340° North 494 568 35,000  Level FlightAware Transoceanic
04:35AM 34.5519 -69.5577 340° North 494 568 35,000  Level FlightAware Transoceanic
04:36AM 34.6841 -69.6149 340° North 494 568 35,000  Level FlightAware Transoceanic
04:37AM 34.8162 -69.6722 340° North 494 568 35,000  Level FlightAware Transoceanic
04:38AM 34.9182 -69.7075 340° North 499 574 35,000  Level FlightAware Transoceanic
04:39AM 35.0518 -69.7662 340° North 499 574 35,000  Level FlightAware Transoceanic
04:40AM 35.1853 -69.8251 340° North 499 574 35,000  Level FlightAware Transoceanic
04:41AM 35.3188 -69.8842 340° North 499 574 35,000  Level FlightAware Transoceanic
04:42AM 35.4523 -69.9436 340° North 499 574 35,000  Level FlightAware Transoceanic
04:43AM 35.5857 -70.0031 340° North 499 574 35,000  Level FlightAware Transoceanic
04:44AM 35.7191 -70.0628 340° North 499 574 35,000  Level FlightAware Transoceanic
04:45AM 35.8525 -70.1227 340° North 499 574 35,000  Level FlightAware Transoceanic
04:46AM 35.9859 -70.1828 340° North 499 574 35,000  Level FlightAware Transoceanic
04:47AM 36.1192 -70.2431 340° North 499 574 35,000  Level FlightAware Transoceanic
04:48AM 36.2525 -70.3036 340° North 499 574 35,000  Level FlightAware Transoceanic
04:48AM 36.0500 -70.2167 340° North 488 562 35,000  Level New York Oceanic (ODAPS)
04:49AM 36.3858 -70.3643 340° North 499 574 35,000  Level FlightAware Transoceanic
04:50AM 36.5190 -70.4253 340° North 499 574 35,000  Level FlightAware Transoceanic
04:51AM 36.6522 -70.4864 340° North 499 574 35,000  Level FlightAware Transoceanic
04:52AM 36.7854 -70.5478 340° North 499 574 35,000  Level FlightAware Transoceanic
04:53AM 36.9185 -70.6093 340° North 499 574 35,000  Level FlightAware Transoceanic
04:54AM 37.0762 -70.6845 340° North 488 562 35,000  Level FlightAware Transoceanic
04:55AM 37.2044 -70.7439 340° North 488 562 35,000  Level FlightAware Transoceanic
04:56AM 37.3325 -70.8034 340° North 488 562 35,000  Level FlightAware Transoceanic
04:56AM 37.3267 -70.8217 330° Northwest 467 537 35,000  Level New York Center
04:57AM 37.4606 -70.8632 340° North 488 562 35,000  Level FlightAware Transoceanic
04:57AM 37.4225 -70.9314 318° Northwest 459 528 35,000  Level New York Center
04:58AM 37.5886 -70.9231 340° North 488 562 35,000  Level FlightAware Transoceanic
04:58AM 37.5181 -71.0444 317° Northwest 464 534 35,000  Level New York Center
04:59AM 37.7167 -70.9833 330° Northwest 488 562 35,000  Level FlightAware Transoceanic
05:00AM 37.8260 -71.0639 330° Northwest 488 562 35,000  Level FlightAware Transoceanic
05:01AM 37.9352 -71.1447 330° Northwest 488 562 35,000  Level FlightAware Transoceanic
05:04AM 38.0813 -71.6836 317° Northwest 470 541 35,000  Level FlightAware ADS-B
05:06AM 38.2360 -71.8741 316° Northwest 471 542 35,000  Level FlightAware ADS-B
05:06AM 38.2844 -71.9342 316° Northwest 471 542 35,000  Level FlightAware ADS-B
05:07AM 38.3364 -71.9989 316° Northwest 471 542 35,000  Level FlightAware ADS-B
05:07AM 38.3855 -72.0600 316° Northwest 471 542 35,000  Level FlightAware ADS-B
05:08AM 38.4320 -72.1183 316° Northwest 470 541 35,000  Level FlightAware ADS-B
05:08AM 38.4801 -72.1785 316° Northwest 470 541 35,000  Level FlightAware ADS-B
05:09AM 38.5266 -72.2369 316° Northwest 469 540 35,000  Level FlightAware ADS-B
05:09AM 38.5769 -72.3004 315° West 468 539 35,000 -240 Level FlightAware ADS-B
05:10AM 38.6241 -72.3599 315° West 467 537 34,800 -1,200 Descending FlightAware ADS-B
05:10AM 38.6706 -72.4188 315° West 463 533 33,800 -2,700 Descending FlightAware ADS-B
05:11AM 38.7167 -72.4772 315° West 470 541 32,100 -3,360 Descending FlightAware ADS-B
05:11AM 38.7632 -72.5368 315° West 476 548 30,400 -3,000 Descending FlightAware ADS-B
05:12AM 38.8102 -72.5962 315° West 473 544 29,100 -2,640 Descending FlightAware ADS-B
05:12AM 38.8571 -72.6562 315° West 468 539 27,800 -2,520 Descending FlightAware ADS-B
05:13AM 38.9029 -72.7148 315° West 463 533 26,600 -2,400 Descending FlightAware ADS-B
05:13AM 38.9487 -72.7736 315° West 457 526 25,400 -2,400 Descending FlightAware ADS-B
05:14AM 38.9930 -72.8309 315° West 451 519 24,200 -2,340 Descending FlightAware ADS-B
05:14AM 39.0373 -72.8882 315° West 445 512 23,100 -2,340 Descending FlightAware ADS-B
05:15AM 39.0810 -72.9446 315° West 438 504 21,900 -2,280 Descending FlightAware ADS-B
05:15AM 39.1238 -73.0004 315° West 431 496 20,800 -2,220 Descending FlightAware ADS-B
05:16AM 39.1665 -73.0560 315° West 424 488 19,700 -2,220 Descending FlightAware ADS-B
05:16AM 39.2079 -73.1100 315° West 418 481 18,600 -2,280 Descending FlightAware ADS-B
05:17AM 39.2495 -73.1641 315° West 413 475 17,400 -2,280 Descending FlightAware ADS-B
05:17AM 39.2905 -73.2178 315° West 407 468 16,300 -2,220 Descending FlightAware ADS-B
05:18AM 39.3301 -73.2700 314° West 400 460 15,200 -2,100 Descending FlightAware ADS-B
05:18AM 39.3619 -73.3118 315° West 395 455 14,400 -2,040 Descending FlightAware ADS-B
05:19AM 39.3986 -73.3604 314° West 390 449 13,400 -2,040 Descending FlightAware ADS-B
05:19AM 39.4360 -73.4098 314° West 384 442 12,400 -2,040 Descending FlightAware ADS-B
05:20AM 39.4729 -73.4589 314° West 379 436 11,400 -2,040 Descending FlightAware ADS-B
05:20AM 39.5095 -73.5073 314° West 375 432 10,400 -1,320 Descending FlightAware ADS-B
05:21AM 39.5454 -73.5552 314° West 351 404 10,100 -300 Descending FlightAware ADS-B
05:21AM 39.5777 -73.5985 314° West 319 367 10,100 -120 Level FlightAware ADS-B
05:22AM 39.5997 -73.6279 314° West 301 346 10,000 -840 Descending FlightAware ADS-B
05:22AM 39.6144 -73.6480 314° West 303 349 9,600 -1,560 Descending FlightAware ADS-B
05:22AM 39.6296 -73.6684 314° West 303 349 9,200 -1,380 Descending FlightAware ADS-B
05:22AM 39.6444 -73.6883 314° West 307 353 8,900 -780 Descending FlightAware ADS-B
05:23AM 39.6599 -73.7091 314° West 310 357 8,800 -600 Descending FlightAware ADS-B
05:23AM 39.6756 -73.7302 314° West 308 354 8,600 -600 Descending FlightAware ADS-B
05:23AM 39.6904 -73.7500 314° West 306 352 8,500 -420 Descending FlightAware ADS-B
05:24AM 39.7055 -73.7704 314° West 306 352 8,400 -420 Descending FlightAware ADS-B
05:24AM 39.7201 -73.7900 314° West 304 350 8,300 -420 Descending FlightAware ADS-B
05:24AM 39.7354 -73.8107 314° West 303 349 8,200 -600 Descending FlightAware ADS-B
05:24AM 39.7523 -73.8337 314° West 304 350 8,000 -540 Descending FlightAware ADS-B
05:25AM 39.7707 -73.8588 314° West 302 348 7,900 -540 Descending FlightAware ADS-B
05:25AM 39.7874 -73.8815 314° West 301 346 7,700 -600 Descending FlightAware ADS-B
05:26AM 39.8190 -73.9240 314° West 290 334 7,400 -780 Descending FlightAware
05:26AM 39.8328 -73.9429 314° West 300 345 7,100 -1,380 Descending FlightAware ADS-B
05:26AM 39.8644 -73.9865 313° West 293 337 6,400 -840 Descending FlightAware ADS-B
05:27AM 39.9111 -74.0500 314° West 290 334 6,000 -420 Descending FlightAware ADS-B
05:27AM 39.9251 -74.0695 313° West 291 335 6,000  Level FlightAware ADS-B
05:28AM 39.9400 -74.0898 314° West 292 336 6,000  Level FlightAware ADS-B
05:28AM 39.9550 -74.1103 314° West 291 335 6,000  Level FlightAware ADS-B
05:28AM 39.9688 -74.1291 314° West 291 335 6,000  Level FlightAware ADS-B
05:28AM 39.9832 -74.1489 314° West 291 335 6,000  Level FlightAware ADS-B
05:29AM 39.9973 -74.1683 313° West 291 335 6,000  Level FlightAware ADS-B
05:29AM 40.0118 -74.1884 313° West 291 335 6,000  Level FlightAware ADS-B
05:29AM 40.0263 -74.2084 313° West 291 335 6,000  Level FlightAware ADS-B
05:29AM 40.0405 -74.2280 313° West 291 335 6,000  Level FlightAware ADS-B
05:30AM 40.0546 -74.2474 314° West 291 335 6,000  Level FlightAware ADS-B
05:30AM 40.0687 -74.2670 313° West 290 334 6,000  Level FlightAware ADS-B
05:30AM 40.0827 -74.2863 313° West 290 334 6,000  Level FlightAware ADS-B
05:31AM 40.0983 -74.3077 314° West 289 333 6,000  Level FlightAware ADS-B
05:31AM 40.1125 -74.3274 313° West 289 333 6,000  Level FlightAware ADS-B
05:31AM 40.1263 -74.3467 313° West 289 333 6,000  Level FlightAware ADS-B
05:31AM 40.1400 -74.3657 313° West 289 333 6,000  Level FlightAware ADS-B
05:32AM 40.1543 -74.3856 313° West 289 333 6,000  Level FlightAware ADS-B
05:32AM 40.1681 -74.4048 313° West 289 333 6,000  Level FlightAware ADS-B
05:32AM 40.1837 -74.4263 314° West 289 333 6,000  Level FlightAware ADS-B
05:32AM 40.1976 -74.4457 313° West 289 333 6,000  Level FlightAware ADS-B
05:33AM 40.2109 -74.4641 313° West 290 334 6,000  Level FlightAware ADS-B
05:33AM 40.2155 -74.4696 318° Northwest 292 336 6,000  Level FlightAware ADS-B
05:33AM 40.2189 -74.4731 322° Northwest 294 338 6,000  Level FlightAware ADS-B
05:33AM 40.2223 -74.4759 328° Northwest 296 341 6,000  Level FlightAware ADS-B
05:33AM 40.2269 -74.4789 334° Northwest 297 342 6,000  Level FlightAware ADS-B
05:33AM 40.2336 -74.4819 341° North 300 345 6,000  Level FlightAware ADS-B
05:33AM 40.2391 -74.4834 348° North 301 346 6,000  Level FlightAware ADS-B
05:33AM 40.2583 -74.4876 351° North 304 350 6,000  Level FlightAware ADS-B
05:33AM 40.2796 -74.4924 350° North 305 351 6,000  Level FlightAware ADS-B
05:34AM 40.3009 -74.4974 350° North 304 350 6,000  Level FlightAware ADS-B
05:34AM 40.3222 -74.5024 350° North 304 350 6,000  Level FlightAware ADS-B
05:34AM 40.3435 -74.5076 349° North 305 351 6,000  Level FlightAware ADS-B
05:34AM 40.3647 -74.5126 350° North 305 351 6,000 -240 Level FlightAware ADS-B
05:35AM 40.3858 -74.5178 349° North 304 350 5,900 -660 Descending FlightAware ADS-B
05:35AM 40.4043 -74.5222 350° North 302 348 5,700 -1,080 Descending FlightAware ADS-B
05:35AM 40.4250 -74.5272 350° North 300 345 5,400 -1,020 Descending FlightAware ADS-B
05:35AM 40.4450 -74.5322 349° North 297 342 5,200 -1,140 Descending FlightAware ADS-B
05:35AM 40.4472 -74.5327 350° North 301 346 5,100 -1,140 Descending FlightAware ADS-B
05:36AM 40.4655 -74.5374 349° North 293 337 4,900 -1,080 Descending FlightAware ADS-B
05:36AM 40.4849 -74.5423 349° North 292 336 4,600 -1,260 Descending FlightAware ADS-B
05:36AM 40.5052 -74.5469 350° North 292 336 4,300 -1,380 Descending FlightAware ADS-B
05:36AM 40.5253 -74.5510 351° North 291 335 3,900 -1,380 Descending FlightAware ADS-B
05:37AM 40.5465 -74.5552 351° North 291 335 3,600 -1,200 Descending FlightAware ADS-B
05:37AM 40.5665 -74.5586 353° North 290 334 3,300 -1,200 Descending FlightAware ADS-B
05:37AM 40.5867 -74.5620 353° North 289 333 3,000 -600 Descending FlightAware ADS-B
05:37AM 40.6071 -74.5655 353° North 289 333 3,000  Level FlightAware ADS-B
05:38AM 40.6307 -74.5640 North 297 342 3,000  Level FlightAware ADS-B
05:38AM 40.6624 -74.5371 33° Northeast 303 349 3,000  Level FlightAware ADS-B
05:39AM 40.7029 -74.4967 37° Northeast 302 348 3,000  Level FlightAware ADS-B
05:39AM 40.7252 -74.4746 37° Northeast 289 333 3,000  Level FlightAware ADS-B
05:40AM 40.7603 -74.4398 37° Northeast 263 303 3,000  Level FlightAware ADS-B
05:40AM 40.7910 -74.4090 37° Northeast 259 298 3,000  Level FlightAware
05:41AM 40.8165 -74.3826 38° Northeast 260 299 3,000  Level FlightAware ADS-B
05:41AM 40.8193 -74.3779 52° Northeast 260 299 3,000  Level FlightAware ADS-B
05:41AM 40.8230 -74.3705 57° Northeast 258 297 3,000  Level FlightAware ADS-B
05:41AM 40.8298 -74.3538 62° Northeast 258 297 3,000  Level FlightAware ADS-B
05:41AM 40.8379 -74.3324 63° Northeast 258 297 3,000  Level FlightAware ADS-B
05:42AM 40.8600 -74.2761 63° Northeast 259 298 3,000  Level FlightAware ADS-B
05:42AM 40.8632 -74.2679 63° Northeast 258 297 3,000  Level FlightAware ADS-B
05:42AM 40.8658 -74.2592 68° East 255 293 3,000 -720 Level FlightAware ADS-B
05:42AM 40.8668 -74.2538 76° East 251 289 2,900 -780 Descending FlightAware ADS-B
05:42AM 40.8676 -74.2463 82° East 247 284 2,900 -420 Level FlightAware ADS-B
05:43AM 40.8690 -74.1710 89° East 239 275 2,500 -300 Descending FlightAware
05:44AM 40.8570 -74.1280 110° East 208 239 2,500  Level FlightAware
05:44AM 40.8539 -74.1210 120° Southeast 204 235 2,500  Level FlightAware ADS-B
05:44AM 40.8495 -74.1091 116° Southeast 199 229 2,500  Level FlightAware ADS-B
05:44AM 40.8483 -74.1056 114° Southeast 197 227 2,500  Level FlightAware ADS-B
05:44AM 40.8467 -74.1022 122° Southeast 193 222 2,500  Level FlightAware ADS-B
05:44AM 40.8434 -74.0969 129° Southeast 183 211 2,500  Level FlightAware ADS-B
05:44AM 40.8407 -74.0942 143° Southeast 176 203 2,500  Level FlightAware ADS-B
05:44AM 40.8385 -74.0927 153° Southeast 171 197 2,500  Level FlightAware ADS-B
05:44AM 40.8353 -74.0914 163° South 167 192 2,500 -600 Level FlightAware ADS-B
05:45AM 40.8097 -74.0903 178° South 151 174 2,100 -660 Descending FlightAware ADS-B
05:45AM 40.8067 -74.0920 203° Southwest 149 171 2,100 -720 Level FlightAware ADS-B
05:45AM 40.7990 -74.0977 209° Southwest 142 163 1,900 -840 Descending FlightAware ADS-B
05:45AM 40.7941 -74.1011 208° Southwest 133 153 1,800 -780 Descending FlightAware ADS-B
05:46AM 40.7861 -74.1061 205° Southwest 126 145 1,600 -780 Descending FlightAware ADS-B
05:46AM 40.7770 -74.1120 206° Southwest 123 142 1,400 -720 Descending FlightAware ADS-B
05:46AM 40.7678 -74.1181 207° Southwest 126 145 1,200 -780 Descending FlightAware ADS-B
05:47AM 40.7597 -74.1234 206° Southwest 128 147 1,000 -780 Descending FlightAware ADS-B
05:47AM 40.7552 -74.1262 205° Southwest 132 152 900 -600 Descending FlightAware ADS-B
05:47AM 40.7429 -74.1342 206° Southwest 134 154 700 -780 Descending FlightAware ADS-B
05:48AM 40.7183 -74.1502 206° Southwest 134 154 100 -840 Descending FlightAware ADS-B